Time,TemperatureF,DewpointF,PressureIn,WindDirection,WindDirectionDegrees,WindSpeedMPH,WindSpeedGustMPH,Humidity,HourlyPrecipIn,Conditions,Clouds,dailyrainin,SoftwareType,DateUTC
2013-02-07 00:08:00,34.5,31.0,29.71,West,271,7.0,11.0,85,0.00,,,0.00,weatherlink.com 1.10,2013-02-07 07:08:00,
2013-02-07 00:23:00,34.4,31.0,29.72,SSW,203,8.0,10.0,88,0.00,,,0.00,weatherlink.com 1.10,2013-02-07 07:23:00,
2013-02-07 00:38:00,34.0,31.0,29.72,WSW,249,10.0,10.0,88,0.00,,,0.00,weatherlink.com 1.10,2013-02-07 07:38:00,
2013-02-07 00:53:00,34.1,31.0,29.72,SW,229,4.0,11.0,88,0.00,,,0.00,weatherlink.com 1.10,2013-02-07 07:53:00,
2013-02-07 01:08:00,34.1,31.0,29.72,West,271,9.0,13.0,89,0.00,,,0.00,weatherlink.com 1.10,2013-02-07 08:08:00,
2013-02-07 01:23:00,33.8,31.0,29.72,West,262,4.0,11.0,89,0.00,,,0.00,weatherlink.com 1.10,2013-02-07 08:23:00,
2013-02-07 01:38:00,33.6,31.0,29.72,SW,228,6.0,9.0,90,0.00,,,0.00,weatherlink.com 1.10,2013-02-07 08:38:00,
2013-02-07 01:53:00,33.6,31.0,29.72,SW,225,5.0,10.0,90,0.00,,,0.00,weatherlink.com 1.10,2013-02-07 08:53:00,
2013-02-07 02:08:00,33.5,31.0,29.72,West,264,4.0,9.0,91,0.00,,,0.00,weatherlink.com 1.10,2013-02-07 09:08:00,
2013-02-07 02:23:00,33.5,31.0,29.72,SSE,160,2.0,5.0,91,0.00,,,0.00,weatherlink.com 1.10,2013-02-07 09:23:00,
2013-02-07 02:38:00,33.3,31.0,29.72,SW,232,2.0,4.0,92,0.00,,,0.00,weatherlink.com 1.10,2013-02-07 09:38:00,
2013-02-07 02:53:00,33.2,31.0,29.73,SSW,197,1.0,3.0,91,0.00,,,0.00,weatherlink.com 1.10,2013-02-07 09:53:00,
2013-02-07 03:08:00,32.9,30.0,29.73,SW,217,4.0,4.0,88,0.00,,,0.00,weatherlink.com 1.10,2013-02-07 10:08:00,
2013-02-07 03:23:00,33.0,30.0,29.73,SW,222,4.0,6.0,88,0.00,,,0.00,weatherlink.com 1.10,2013-02-07 10:23:00,
2013-02-07 03:38:00,33.0,28.0,29.73,SW,233,1.0,5.0,82,0.00,,,0.00,weatherlink.com 1.10,2013-02-07 10:38:00,
2013-02-07 03:53:00,32.4,28.0,29.73,WSW,257,3.0,6.0,85,0.00,,,0.00,weatherlink.com 1.10,2013-02-07 10:53:00,
2013-02-07 04:08:00,32.1,29.0,29.73,SW,225,3.0,6.0,87,0.00,,,0.00,weatherlink.com 1.10,2013-02-07 11:08:00,
2013-02-07 04:23:00,32.3,29.0,29.73,WSW,248,5.0,8.0,87,0.00,,,0.00,weatherlink.com 1.10,2013-02-07 11:23:00,
2013-02-07 04:38:00,32.4,29.0,29.73,West,260,6.0,9.0,87,0.00,,,0.00,weatherlink.com 1.10,2013-02-07 11:38:00,
2013-02-07 04:53:00,32.4,29.0,29.73,West,262,6.0,7.0,87,0.00,,,0.00,weatherlink.com 1.10,2013-02-07 11:53:00,
2013-02-07 05:08:00,32.1,29.0,29.73,WSW,242,2.0,6.0,87,0.00,,,0.00,weatherlink.com 1.10,2013-02-07 12:08:00,
2013-02-07 05:24:00,31.3,28.0,29.74,West,280,1.0,4.0,88,0.00,,,0.00,weatherlink.com 1.10,2013-02-07 12:24:00,
2013-02-07 05:39:00,31.6,28.0,29.74,SW,224,1.0,2.0,87,0.00,,,0.00,weatherlink.com 1.10,2013-02-07 12:39:00,
2013-02-07 05:54:00,31.8,28.0,29.74,WSW,239,0.0,1.0,87,0.00,,,0.00,weatherlink.com 1.10,2013-02-07 12:54:00,
2013-02-07 06:09:00,31.0,28.0,29.74,WSW,239,0.0,1.0,87,0.00,,,0.00,weatherlink.com 1.10,2013-02-07 13:09:00,
2013-02-07 06:24:00,30.4,26.0,29.74,WSW,239,0.0,1.0,83,0.00,,,0.00,weatherlink.com 1.10,2013-02-07 13:24:00,
2013-02-07 06:39:00,29.7,25.0,29.75,WSW,239,0.0,0.0,81,0.00,,,0.00,weatherlink.com 1.10,2013-02-07 13:39:00,
2013-02-07 06:54:00,30.4,25.0,29.75,WSW,239,0.0,0.0,79,0.00,,,0.00,weatherlink.com 1.10,2013-02-07 13:54:00,
2013-02-07 07:09:00,30.4,25.0,29.76,WSW,239,0.0,0.0,81,0.00,,,0.00,weatherlink.com 1.10,2013-02-07 14:09:00,
2013-02-07 07:24:00,30.2,26.0,29.76,WSW,239,0.0,0.0,85,0.00,,,0.00,weatherlink.com 1.10,2013-02-07 14:24:00,
2013-02-07 07:39:00,31.1,27.0,29.76,North,1,0.0,1.0,85,0.00,,,0.00,weatherlink.com 1.10,2013-02-07 14:39:00,
2013-02-07 07:54:00,31.2,28.0,29.77,North,1,0.0,0.0,86,0.00,,,0.00,weatherlink.com 1.10,2013-02-07 14:54:00,
2013-02-07 08:09:00,31.0,28.0,29.78,North,1,0.0,0.0,88,0.00,,,0.00,weatherlink.com 1.10,2013-02-07 15:09:00,
2013-02-07 08:24:00,32.2,28.0,29.79,ENE,65,3.0,3.0,85,0.00,,,0.00,weatherlink.com 1.10,2013-02-07 15:24:00,
2013-02-07 08:39:00,33.8,27.0,29.79,ENE,65,1.0,5.0,77,0.00,,,0.00,weatherlink.com 1.10,2013-02-07 15:39:00,
2013-02-07 08:54:00,34.5,30.0,29.80,ENE,68,3.0,5.0,82,0.00,,,0.00,weatherlink.com 1.10,2013-02-07 15:54:00,
2013-02-07 09:09:00,35.0,29.0,29.80,NW,325,1.0,6.0,79,0.00,,,0.00,weatherlink.com 1.10,2013-02-07 16:09:00,
2013-02-07 09:24:00,35.6,29.0,29.80,NE,50,3.0,4.0,78,0.00,,,0.00,weatherlink.com 1.10,2013-02-07 16:24:00,
2013-02-07 09:39:00,36.0,30.0,29.81,NE,51,0.0,5.0,78,0.00,,,0.00,weatherlink.com 1.10,2013-02-07 16:39:00,
2013-02-07 09:54:00,37.5,30.0,29.81,NE,41,5.0,5.0,75,0.00,,,0.00,weatherlink.com 1.10,2013-02-07 16:54:00,
2013-02-07 10:09:00,37.6,31.0,29.81,WSW,243,4.0,8.0,78,0.00,,,0.00,weatherlink.com 1.10,2013-02-07 17:09:00,
2013-02-07 10:24:00,37.9,32.0,29.81,ENE,76,4.0,6.0,78,0.00,,,0.00,weatherlink.com 1.10,2013-02-07 17:24:00,
2013-02-07 10:39:00,38.3,31.0,29.81,NE,46,2.0,6.0,74,0.00,,,0.00,weatherlink.com 1.10,2013-02-07 17:39:00,
2013-02-07 10:54:00,38.3,30.0,29.81,NE,46,4.0,7.0,73,0.00,,,0.00,weatherlink.com 1.10,2013-02-07 17:54:00,
2013-02-07 11:09:00,38.8,31.0,29.80,NNE,23,5.0,7.0,73,0.00,,,0.00,weatherlink.com 1.10,2013-02-07 18:09:00,
2013-02-07 11:24:00,38.9,30.0,29.80,NE,47,5.0,6.0,70,0.00,,,0.00,weatherlink.com 1.10,2013-02-07 18:24:00,
2013-02-07 11:39:00,39.8,29.0,29.80,ENE,57,6.0,7.0,65,0.00,,,0.00,weatherlink.com 1.10,2013-02-07 18:39:00,
2013-02-07 11:54:00,39.9,29.0,29.79,ENE,61,5.0,9.0,64,0.00,,,0.00,weatherlink.com 1.10,2013-02-07 18:54:00,
2013-02-07 12:09:00,40.9,31.0,29.79,ENE,65,3.0,6.0,67,0.00,,,0.00,weatherlink.com 1.10,2013-02-07 19:09:00,
2013-02-07 12:24:00,40.9,30.0,29.78,East,83,3.0,7.0,66,0.00,,,0.00,weatherlink.com 1.10,2013-02-07 19:24:00,
2013-02-07 12:39:00,40.7,31.0,29.77,NE,49,6.0,6.0,68,0.00,,,0.00,weatherlink.com 1.10,2013-02-07 19:39:00,
2013-02-07 12:54:00,41.8,31.0,29.77,ENE,58,5.0,7.0,65,0.00,,,0.00,weatherlink.com 1.10,2013-02-07 19:54:00,
2013-02-07 13:09:00,41.5,30.0,29.76,ENE,75,3.0,7.0,64,0.00,,,0.00,weatherlink.com 1.10,2013-02-07 20:09:00,
2013-02-07 13:24:00,41.2,29.0,29.75,WNW,284,2.0,6.0,63,0.00,,,0.00,weatherlink.com 1.10,2013-02-07 20:24:00,
2013-02-07 13:39:00,42.5,30.0,29.75,NE,53,0.0,3.0,62,0.00,,,0.00,weatherlink.com 1.10,2013-02-07 20:39:00,
2013-02-07 13:54:00,44.7,31.0,29.75,East,90,1.0,2.0,58,0.00,,,0.00,weatherlink.com 1.10,2013-02-07 20:54:00,
2013-02-07 14:10:00,45.5,31.0,29.74,SSE,163,0.0,1.0,58,0.00,,,0.00,weatherlink.com 1.10,2013-02-07 21:10:00,
2013-02-07 14:25:00,46.5,31.0,29.74,East,86,1.0,3.0,56,0.00,,,0.00,weatherlink.com 1.10,2013-02-07 21:25:00,
2013-02-07 14:40:00,45.7,31.0,29.74,ENE,71,0.0,3.0,56,0.00,,,0.00,weatherlink.com 1.10,2013-02-07 21:40:00,
2013-02-07 14:55:00,46.0,30.0,29.74,ENE,68,1.0,2.0,55,0.00,,,0.00,weatherlink.com 1.10,2013-02-07 21:55:00,
2013-02-07 15:10:00,45.5,30.0,29.73,East,91,1.0,3.0,56,0.00,,,0.00,weatherlink.com 1.10,2013-02-07 22:10:00,
2013-02-07 15:25:00,45.8,30.0,29.74,NNE,24,1.0,2.0,55,0.00,,,0.00,weatherlink.com 1.10,2013-02-07 22:25:00,
2013-02-07 15:40:00,47.3,31.0,29.73,East,92,1.0,1.0,54,0.00,,,0.00,weatherlink.com 1.10,2013-02-07 22:40:00,
2013-02-07 15:55:00,47.1,31.0,29.73,East,86,0.0,1.0,55,0.00,,,0.00,weatherlink.com 1.10,2013-02-07 22:55:00,
2013-02-07 16:10:00,46.4,33.0,29.73,WNW,284,3.0,3.0,59,0.00,,,0.00,weatherlink.com 1.10,2013-02-07 23:10:00,
2013-02-07 16:25:00,45.3,33.0,29.73,East,98,2.0,6.0,63,0.00,,,0.00,weatherlink.com 1.10,2013-02-07 23:25:00,
2013-02-07 16:40:00,44.8,33.0,29.73,West,281,4.0,5.0,64,0.00,,,0.00,weatherlink.com 1.10,2013-02-07 23:40:00,
2013-02-07 16:55:00,45.3,33.0,29.73,SSE,159,2.0,2.0,63,0.00,,,0.00,weatherlink.com 1.10,2013-02-07 23:55:00,
2013-02-07 17:10:00,44.0,33.0,29.73,West,271,0.0,1.0,65,0.00,,,0.00,weatherlink.com 1.10,2013-02-08 00:10:00,
2013-02-07 17:25:00,43.9,33.0,29.73,WSW,250,0.0,1.0,65,0.00,,,0.00,weatherlink.com 1.10,2013-02-08 00:25:00,
2013-02-07 17:40:00,41.1,30.0,29.73,WSW,250,0.0,1.0,66,0.00,,,0.00,weatherlink.com 1.10,2013-02-08 00:40:00,
2013-02-07 17:55:00,39.7,29.0,29.73,SE,146,2.0,4.0,67,0.00,,,0.00,weatherlink.com 1.10,2013-02-08 00:55:00,
2013-02-07 18:10:00,39.1,29.0,29.73,ESE,108,0.0,7.0,68,0.00,,,0.00,weatherlink.com 1.10,2013-02-08 01:10:00,
2013-02-07 18:25:00,38.9,28.0,29.73,ESE,107,2.0,3.0,65,0.00,,,0.00,weatherlink.com 1.10,2013-02-08 01:25:00,
2013-02-07 18:40:00,38.3,25.0,29.73,North,354,2.0,4.0,60,0.00,,,0.00,weatherlink.com 1.10,2013-02-08 01:40:00,
2013-02-07 18:55:00,38.1,23.0,29.72,NNE,26,1.0,8.0,55,0.00,,,0.00,weatherlink.com 1.10,2013-02-08 01:55:00,
2013-02-07 19:10:00,38.0,24.0,29.73,WNW,293,3.0,4.0,57,0.00,,,0.00,weatherlink.com 1.10,2013-02-08 02:10:00,
2013-02-07 19:25:00,38.3,24.0,29.73,NNE,30,1.0,11.0,57,0.00,,,0.00,weatherlink.com 1.10,2013-02-08 02:25:00,
2013-02-07 19:40:00,38.3,25.0,29.73,NW,318,1.0,9.0,59,0.00,,,0.00,weatherlink.com 1.10,2013-02-08 02:40:00,
2013-02-07 19:55:00,38.6,26.0,29.73,SW,226,2.0,13.0,60,0.00,,,0.00,weatherlink.com 1.10,2013-02-08 02:55:00,
2013-02-07 20:10:00,38.8,26.0,29.73,SW,218,3.0,11.0,61,0.00,,,0.00,weatherlink.com 1.10,2013-02-08 03:10:00,
2013-02-07 20:25:00,38.8,24.0,29.73,ESE,117,3.0,12.0,55,0.00,,,0.00,weatherlink.com 1.10,2013-02-08 03:25:00,
2013-02-07 20:40:00,39.2,23.0,29.73,SSW,213,8.0,17.0,53,0.00,,,0.00,weatherlink.com 1.10,2013-02-08 03:40:00,
2013-02-07 20:55:00,39.3,23.0,29.73,SSW,203,6.0,12.0,52,0.00,,,0.00,weatherlink.com 1.10,2013-02-08 03:55:00,
2013-02-07 21:10:00,39.1,22.0,29.72,SSW,193,2.0,18.0,51,0.00,,,0.00,weatherlink.com 1.10,2013-02-08 04:10:00,
2013-02-07 21:25:00,38.9,22.0,29.72,WNW,283,3.0,8.0,52,0.00,,,0.00,weatherlink.com 1.10,2013-02-08 04:25:00,
2013-02-07 21:40:00,38.5,23.0,29.72,NE,36,0.0,6.0,55,0.00,,,0.00,weatherlink.com 1.10,2013-02-08 04:40:00,
2013-02-07 21:55:00,38.3,25.0,29.72,NE,46,3.0,6.0,58,0.00,,,0.00,weatherlink.com 1.10,2013-02-08 04:55:00,
2013-02-07 22:10:00,37.9,25.0,29.71,North,1,2.0,7.0,60,0.00,,,0.00,weatherlink.com 1.10,2013-02-08 05:10:00,
2013-02-07 22:25:00,38.2,24.0,29.71,NNW,337,1.0,5.0,56,0.00,,,0.00,weatherlink.com 1.10,2013-02-08 05:25:00,
2013-02-07 22:40:00,38.3,23.0,29.71,North,359,3.0,8.0,54,0.00,,,0.00,weatherlink.com 1.10,2013-02-08 05:40:00,
2013-02-07 22:55:00,38.5,23.0,29.71,NE,55,3.0,9.0,53,0.00,,,0.00,weatherlink.com 1.10,2013-02-08 05:55:00,
2013-02-07 23:10:00,38.7,23.0,29.71,NE,53,4.0,8.0,53,0.00,,,0.00,weatherlink.com 1.10,2013-02-08 06:10:00,
2013-02-07 23:25:00,38.8,23.0,29.70,East,98,2.0,8.0,53,0.00,,,0.00,weatherlink.com 1.10,2013-02-08 06:25:00,
2013-02-07 23:40:00,38.5,23.0,29.70,NW,316,1.0,7.0,55,0.00,,,0.00,weatherlink.com 1.10,2013-02-08 06:40:00,
2013-02-07 23:55:00,38.9,23.0,29.70,SW,218,4.0,11.0,54,0.00,,,0.00,weatherlink.com 1.10,2013-02-08 06:55:00,